Time;durP1;ratioP1;P1;durP2;ratioP2;P2;SDS_P1;SDS_P2;PMS_P1;PMS_P2;Temp;Humidity;BMP_temperature;BMP_pressure;BME280_temperature;BME280_humidity;BME280_pressure;Samples;Min_cycle;Max_cycle;Signal;HPM_P1;HPM_P2
2022/06/12 00:00:52;;;;;;;5.25;3.95;;;;;;;13.55;67.55566;95953.8;;;;
2022/06/12 00:01:53;;;;;;;5.25;3.95;;;;;;;13.55;67.55566;95953.8;;;;
2022/06/12 00:02:54;;;;;;;5.25;3.95;;;;;;;13.55;67.55566;95953.8;;;;
2022/06/12 00:03:56;;;;;;;5.25;3.95;;;;;;;13.55;67.55566;95953.8;;;;
2022/06/12 00:04:56;;;;;;;5.25;3.95;;;;;;;13.55;67.55566;95953.8;;;;
2022/06/12 00:05:58;;;;;;;5.25;3.95;;;;;;;13.55;67.55566;95953.8;;;;
2022/06/12 00:07:00;;;;;;;4.25;3.85;;;;;;;13.74;67.61719;95959.49;;;;
2022/06/12 00:08:02;;;;;;;4.25;3.85;;;;;;;13.74;67.61719;95959.49;;;;
2022/06/12 00:09:03;;;;;;;4.25;3.85;;;;;;;13.74;67.61719;95959.49;;;;
2022/06/12 00:10:04;;;;;;;4.25;3.85;;;;;;;13.74;67.61719;95959.49;;;;
2022/06/12 00:11:05;;;;;;;4.25;3.85;;;;;;;13.74;67.61719;95959.49;;;;
2022/06/12 00:12:09;;;;;;;4.25;3.85;;;;;;;13.74;67.61719;95959.49;;;;
2022/06/12 00:13:10;;;;;;;4.25;3.85;;;;;;;13.74;67.61719;95959.49;;;;
2022/06/12 00:14:15;;;;;;;4.25;3.85;;;;;;;13.74;67.61719;95959.49;;;;
2022/06/12 00:15:16;;;;;;;4.25;3.85;;;;;;;13.74;67.61719;95959.49;;;;
2022/06/12 00:16:20;;;;;;;4.25;3.85;;;;;;;13.74;67.61719;95959.49;;;;
2022/06/12 00:17:23;;;;;;;5.25;3.9;;;;;;;13.73;67.7793;95955.22;;;;
2022/06/12 00:18:23;;;;;;;5.25;3.9;;;;;;;13.73;67.7793;95955.22;;;;
2022/06/12 00:19:25;;;;;;;5.25;3.9;;;;;;;13.73;67.7793;95955.22;;;;
2022/06/12 00:20:25;;;;;;;5.25;3.9;;;;;;;13.73;67.7793;95955.22;;;;
2022/06/12 00:21:27;;;;;;;5.25;3.9;;;;;;;13.73;67.7793;95955.22;;;;
2022/06/12 00:22:29;;;;;;;5.25;3.9;;;;;;;13.73;67.7793;95955.22;;;;
2022/06/12 00:23:30;;;;;;;5.25;3.9;;;;;;;13.73;67.7793;95955.22;;;;
2022/06/12 00:24:30;;;;;;;5.25;3.9;;;;;;;13.73;67.7793;95955.22;;;;
2022/06/12 00:25:31;;;;;;;5.25;3.9;;;;;;;13.73;67.7793;95955.22;;;;
2022/06/12 00:26:31;;;;;;;5.25;3.9;;;;;;;13.73;67.7793;95955.22;;;;
2022/06/12 00:27:34;;;;;;;4.5;3.9;;;;;;;13.73;68.03906;95958.8;;;;
2022/06/12 00:28:34;;;;;;;4.5;3.9;;;;;;;13.73;68.03906;95958.8;;;;
2022/06/12 00:29:35;;;;;;;4.5;3.9;;;;;;;13.73;68.03906;95958.8;;;;
2022/06/12 00:30:37;;;;;;;4.5;3.9;;;;;;;13.73;68.03906;95958.8;;;;
2022/06/12 00:31:38;;;;;;;4.5;3.9;;;;;;;13.73;68.03906;95958.8;;;;
2022/06/12 00:32:46;;;;;;;4.5;3.9;;;;;;;13.73;68.03906;95958.8;;;;
2022/06/12 00:33:47;;;;;;;4.5;3.9;;;;;;;13.73;68.03906;95958.8;;;;
2022/06/12 00:34:48;;;;;;;4.5;3.9;;;;;;;13.73;68.03906;95958.8;;;;
2022/06/12 00:35:50;;;;;;;4.5;3.9;;;;;;;13.73;68.03906;95958.8;;;;
2022/06/12 00:36:51;;;;;;;4.5;3.9;;;;;;;13.73;68.03906;95958.8;;;;
2022/06/12 00:37:52;;;;;;;4.5;3.9;;;;;;;13.73;68.03906;95958.8;;;;
2022/06/12 00:38:53;;;;;;;4.75;4.199999;;;;;;;13.65;68.22363;95951.46;;;;
2022/06/12 00:39:53;;;;;;;4.75;4.199999;;;;;;;13.65;68.22363;95951.46;;;;
2022/06/12 00:40:56;;;;;;;4.75;4.199999;;;;;;;13.65;68.22363;95951.46;;;;
2022/06/12 00:41:56;;;;;;;4.75;4.199999;;;;;;;13.65;68.22363;95951.46;;;;
2022/06/12 00:42:59;;;;;;;4.75;4.199999;;;;;;;13.65;68.22363;95951.46;;;;
2022/06/12 00:44:02;;;;;;;4.75;4.199999;;;;;;;13.65;68.22363;95951.46;;;;
2022/06/12 00:45:03;;;;;;;4.75;4.199999;;;;;;;13.65;68.22363;95951.46;;;;
2022/06/12 00:46:32;;;;;;;4.75;4.199999;;;;;;;13.65;68.22363;95951.46;;;;
2022/06/12 00:47:37;;;;;;;4.75;4.199999;;;;;;;13.65;68.22363;95951.46;;;;
2022/06/12 00:48:38;;;;;;;4.75;4.199999;;;;;;;13.65;68.22363;95951.46;;;;
2022/06/12 00:49:38;;;;;;;4.349999;3.95;;;;;;;13.63;68.41602;95958.32;;;;
2022/06/12 00:50:43;;;;;;;4.349999;3.95;;;;;;;13.63;68.41602;95958.32;;;;
2022/06/12 00:51:47;;;;;;;4.349999;3.95;;;;;;;13.63;68.41602;95958.32;;;;
2022/06/12 00:52:51;;;;;;;4.349999;3.95;;;;;;;13.63;68.41602;95958.32;;;;
2022/06/12 00:53:54;;;;;;;4.349999;3.95;;;;;;;13.63;68.41602;95958.32;;;;
2022/06/12 00:54:58;;;;;;;4.349999;3.95;;;;;;;13.63;68.41602;95958.32;;;;
2022/06/12 00:56:05;;;;;;;4.349999;3.95;;;;;;;13.63;68.41602;95958.32;;;;
2022/06/12 00:57:11;;;;;;;4.349999;3.95;;;;;;;13.63;68.41602;95958.32;;;;
2022/06/12 00:58:12;;;;;;;4.349999;3.95;;;;;;;13.63;68.41602;95958.32;;;;
2022/06/12 00:59:17;;;;;;;4.349999;3.95;;;;;;;13.63;68.41602;95958.32;;;;
2022/06/12 01:00:22;;;;;;;4.349999;3.95;;;;;;;13.56;68.68652;95946.94;;;;
2022/06/12 01:01:23;;;;;;;4.349999;3.95;;;;;;;13.56;68.68652;95946.94;;;;
2022/06/12 01:02:29;;;;;;;4.349999;3.95;;;;;;;13.56;68.68652;95946.94;;;;
2022/06/12 01:06:33;;;;;;;4.349999;3.95;;;;;;;13.56;68.68652;95946.94;;;;
2022/06/12 01:07:34;;;;;;;4.349999;3.95;;;;;;;13.56;68.68652;95946.94;;;;
2022/06/12 01:08:37;;;;;;;4.349999;3.95;;;;;;;13.56;68.68652;95946.94;;;;
2022/06/12 01:09:40;;;;;;;4.349999;3.95;;;;;;;13.56;68.68652;95946.94;;;;
2022/06/12 01:10:45;;;;;;;4.6;3.75;;;;;;;13.57;68.99121;95940.17;;;;
2022/06/12 01:11:49;;;;;;;4.6;3.75;;;;;;;13.57;68.99121;95940.17;;;;
2022/06/12 01:12:53;;;;;;;4.6;3.75;;;;;;;13.57;68.99121;95940.17;;;;
2022/06/12 01:13:58;;;;;;;4.6;3.75;;;;;;;13.57;68.99121;95940.17;;;;
2022/06/12 01:14:58;;;;;;;4.6;3.75;;;;;;;13.57;68.99121;95940.17;;;;
2022/06/12 01:16:05;;;;;;;4.6;3.75;;;;;;;13.57;68.99121;95940.17;;;;
2022/06/12 01:17:13;;;;;;;4.6;3.75;;;;;;;13.57;68.99121;95940.17;;;;
2022/06/12 01:18:15;;;;;;;4.6;3.75;;;;;;;13.57;68.99121;95940.17;;;;
2022/06/12 01:19:20;;;;;;;4.6;3.75;;;;;;;13.57;68.99121;95940.17;;;;
2022/06/12 01:20:27;;;;;;;4.6;3.75;;;;;;;13.57;68.99121;95940.17;;;;
2022/06/12 01:21:37;;;;;;;4.65;4.25;;;;;;;13.46;69.11523;95937.38;;;;
2022/06/12 01:23:05;;;;;;;4.65;4.25;;;;;;;13.46;69.11523;95937.38;;;;
2022/06/12 01:24:26;;;;;;;4.65;4.25;;;;;;;13.46;69.11523;95937.38;;;;
2022/06/12 01:25:44;;;;;;;4.65;4.25;;;;;;;13.46;69.11523;95937.38;;;;
2022/06/12 01:27:25;;;;;;;4.65;4.25;;;;;;;13.46;69.11523;95937.38;;;;
2022/06/12 01:28:44;;;;;;;4.65;4.25;;;;;;;13.46;69.11523;95937.38;;;;
2022/06/12 01:29:50;;;;;;;4.65;4.25;;;;;;;13.46;69.11523;95937.38;;;;
2022/06/12 01:30:58;;;;;;;4.65;4.25;;;;;;;13.46;69.11523;95937.38;;;;
2022/06/12 01:32:05;;;;;;;4.9;4.4;;;;;;;13.34;69.42285;95932.34;;;;
2022/06/12 01:33:12;;;;;;;4.9;4.4;;;;;;;13.34;69.42285;95932.34;;;;
2022/06/12 01:34:21;;;;;;;4.9;4.4;;;;;;;13.34;69.42285;95932.34;;;;
2022/06/12 01:35:32;;;;;;;4.9;4.4;;;;;;;13.34;69.42285;95932.34;;;;
2022/06/12 01:36:43;;;;;;;4.9;4.4;;;;;;;13.34;69.42285;95932.34;;;;
2022/06/12 01:37:50;;;;;;;4.9;4.4;;;;;;;13.34;69.42285;95932.34;;;;
2022/06/12 01:39:00;;;;;;;4.9;4.4;;;;;;;13.34;69.42285;95932.34;;;;
2022/06/12 01:40:15;;;;;;;4.9;4.4;;;;;;;13.34;69.42285;95932.34;;;;
2022/06/12 01:41:26;;;;;;;4.9;4.4;;;;;;;13.34;69.42285;95932.34;;;;
2022/06/12 01:42:32;;;;;;;5;4.3;;;;;;;13.17;69.7627;95937.86;;;;
2022/06/12 01:43:40;;;;;;;5;4.3;;;;;;;13.17;69.7627;95937.86;;;;
2022/06/12 01:44:45;;;;;;;5;4.3;;;;;;;13.17;69.7627;95937.86;;;;
2022/06/12 01:45:54;;;;;;;5;4.3;;;;;;;13.17;69.7627;95937.86;;;;
2022/06/12 01:47:01;;;;;;;5;4.3;;;;;;;13.17;69.7627;95937.86;;;;
2022/06/12 01:48:11;;;;;;;5;4.3;;;;;;;13.17;69.7627;95937.86;;;;
2022/06/12 01:49:23;;;;;;;5;4.3;;;;;;;13.17;69.7627;95937.86;;;;
2022/06/12 01:50:31;;;;;;;5;4.3;;;;;;;13.17;69.7627;95937.86;;;;
2022/06/12 01:51:39;;;;;;;5;4.3;;;;;;;13.17;69.7627;95937.86;;;;
2022/06/12 01:52:51;;;;;;;4.7;4.299999;;;;;;;13.1;70.07813;95926.86;;;;
2022/06/12 01:54:00;;;;;;;4.7;4.299999;;;;;;;13.1;70.07813;95926.86;;;;
2022/06/12 01:55:09;;;;;;;4.7;4.299999;;;;;;;13.1;70.07813;95926.86;;;;
2022/06/12 01:56:14;;;;;;;4.7;4.299999;;;;;;;13.1;70.07813;95926.86;;;;
2022/06/12 01:57:21;;;;;;;4.7;4.299999;;;;;;;13.1;70.07813;95926.86;;;;
2022/06/12 01:58:27;;;;;;;4.7;4.299999;;;;;;;13.1;70.07813;95926.86;;;;
2022/06/12 01:59:33;;;;;;;4.7;4.299999;;;;;;;13.1;70.07813;95926.86;;;;
2022/06/12 02:00:39;;;;;;;4.7;4.299999;;;;;;;13.1;70.07813;95926.86;;;;
2022/06/12 02:01:45;;;;;;;4.7;4.299999;;;;;;;13.1;70.07813;95926.86;;;;
2022/06/12 02:02:53;;;;;;;4.7;4.299999;;;;;;;13.1;70.07813;95926.86;;;;
2022/06/12 02:03:59;;;;;;;4.7;4.299999;;;;;;;13.1;70.07813;95926.86;;;;
2022/06/12 02:05:07;;;;;;;4.7;4.299999;;;;;;;13.1;70.07813;95926.86;;;;
2022/06/12 02:06:16;;;;;;;4.7;4.299999;;;;;;;13.1;70.07813;95926.86;;;;
2022/06/12 02:07:23;;;;;;;4.7;4.299999;;;;;;;13.1;70.07813;95926.86;;;;
2022/06/12 02:08:33;;;;;;;4.7;4.299999;;;;;;;13.1;70.07813;95926.86;;;;
2022/06/12 02:09:37;;;;;;;4.7;4.299999;;;;;;;13.1;70.07813;95926.86;;;;
2022/06/12 02:10:41;;;;;;;4.7;4.299999;;;;;;;13.1;70.07813;95926.86;;;;
2022/06/12 02:17:04;;;;;;;4.4;4;;;;;;;13.16;70.41309;95916.3;;;;
2022/06/12 02:18:12;;;;;;;4.4;4;;;;;;;13.16;70.41309;95916.3;;;;
2022/06/12 02:19:21;;;;;;;4.4;4;;;;;;;13.16;70.41309;95916.3;;;;
2022/06/12 02:20:26;;;;;;;4.4;4;;;;;;;13.16;70.41309;95916.3;;;;
2022/06/12 02:21:33;;;;;;;4.4;4;;;;;;;13.16;70.41309;95916.3;;;;
2022/06/12 02:22:39;;;;;;;4.4;4;;;;;;;13.16;70.41309;95916.3;;;;
2022/06/12 02:23:41;;;;;;;4.4;4;;;;;;;13.16;70.41309;95916.3;;;;
2022/06/12 02:24:45;;;;;;;4.4;4;;;;;;;13.16;70.41309;95916.3;;;;
2022/06/12 02:25:52;;;;;;;4.2;3.8;;;;;;;13.17;70.63184;95907.73;;;;
2022/06/12 02:26:58;;;;;;;4.2;3.8;;;;;;;13.17;70.63184;95907.73;;;;
2022/06/12 02:28:03;;;;;;;4.2;3.8;;;;;;;13.17;70.63184;95907.73;;;;
2022/06/12 02:29:08;;;;;;;4.2;3.8;;;;;;;13.17;70.63184;95907.73;;;;
2022/06/12 02:30:14;;;;;;;4.2;3.8;;;;;;;13.17;70.63184;95907.73;;;;
2022/06/12 02:31:19;;;;;;;4.2;3.8;;;;;;;13.17;70.63184;95907.73;;;;
2022/06/12 02:32:23;;;;;;;4.2;3.8;;;;;;;13.17;70.63184;95907.73;;;;
2022/06/12 02:33:31;;;;;;;4.2;3.8;;;;;;;13.17;70.63184;95907.73;;;;
2022/06/12 02:34:37;;;;;;;4.2;3.8;;;;;;;13.17;70.63184;95907.73;;;;
2022/06/12 02:35:42;;;;;;;4.65;4.25;;;;;;;13.29;70.63867;95906.56;;;;
2022/06/12 02:36:47;;;;;;;4.65;4.25;;;;;;;13.29;70.63867;95906.56;;;;
2022/06/12 02:37:51;;;;;;;4.65;4.25;;;;;;;13.29;70.63867;95906.56;;;;
2022/06/12 02:38:57;;;;;;;4.65;4.25;;;;;;;13.29;70.63867;95906.56;;;;
2022/06/12 02:40:03;;;;;;;4.65;4.25;;;;;;;13.29;70.63867;95906.56;;;;
2022/06/12 02:41:16;;;;;;;4.65;4.25;;;;;;;13.29;70.63867;95906.56;;;;
2022/06/12 02:42:23;;;;;;;4.65;4.25;;;;;;;13.29;70.63867;95906.56;;;;
2022/06/12 02:43:27;;;;;;;4.65;4.25;;;;;;;13.29;70.63867;95906.56;;;;
2022/06/12 02:44:31;;;;;;;4.65;4.25;;;;;;;13.29;70.63867;95906.56;;;;
2022/06/12 02:45:37;;;;;;;4.65;4.25;;;;;;;13.29;70.63867;95906.56;;;;
2022/06/12 02:46:45;;;;;;;4.5;4;;;;;;;13.27;70.86133;95910.44;;;;
2022/06/12 02:47:49;;;;;;;4.5;4;;;;;;;13.27;70.86133;95910.44;;;;
2022/06/12 02:48:50;;;;;;;4.5;4;;;;;;;13.27;70.86133;95910.44;;;;
2022/06/12 02:49:51;;;;;;;4.5;4;;;;;;;13.27;70.86133;95910.44;;;;
2022/06/12 02:50:54;;;;;;;4.5;4;;;;;;;13.27;70.86133;95910.44;;;;
2022/06/12 02:52:05;;;;;;;4.5;4;;;;;;;13.27;70.86133;95910.44;;;;
2022/06/12 02:53:15;;;;;;;4.5;4;;;;;;;13.27;70.86133;95910.44;;;;
2022/06/12 02:54:23;;;;;;;4.5;4;;;;;;;13.27;70.86133;95910.44;;;;
2022/06/12 02:55:32;;;;;;;4.5;4;;;;;;;13.27;70.86133;95910.44;;;;
2022/06/12 02:56:41;;;;;;;4.5;4;;;;;;;13.27;70.86133;95910.44;;;;
2022/06/12 02:57:47;;;;;;;4.299999;3.900001;;;;;;;13.22;70.96289;95910.66;;;;
2022/06/12 02:58:55;;;;;;;4.299999;3.900001;;;;;;;13.22;70.96289;95910.66;;;;
2022/06/12 03:00:03;;;;;;;4.299999;3.900001;;;;;;;13.22;70.96289;95910.66;;;;
2022/06/12 03:01:12;;;;;;;4.299999;3.900001;;;;;;;13.22;70.96289;95910.66;;;;
2022/06/12 03:02:16;;;;;;;4.299999;3.900001;;;;;;;13.22;70.96289;95910.66;;;;
2022/06/12 03:03:25;;;;;;;4.299999;3.900001;;;;;;;13.22;70.96289;95910.66;;;;
2022/06/12 03:04:36;;;;;;;4.299999;3.900001;;;;;;;13.22;70.96289;95910.66;;;;
2022/06/12 03:05:42;;;;;;;4.299999;3.900001;;;;;;;13.22;70.96289;95910.66;;;;
2022/06/12 03:06:48;;;;;;;4.299999;3.900001;;;;;;;13.22;70.96289;95910.66;;;;
2022/06/12 03:07:49;;;;;;;5.25;4.05;;;;;;;13.05;71.24023;95904.11;;;;
2022/06/12 03:08:56;;;;;;;5.25;4.05;;;;;;;13.05;71.24023;95904.11;;;;
2022/06/12 03:09:56;;;;;;;5.25;4.05;;;;;;;13.05;71.24023;95904.11;;;;
2022/06/12 03:11:03;;;;;;;5.25;4.05;;;;;;;13.05;71.24023;95904.11;;;;
2022/06/12 03:12:15;;;;;;;5.25;4.05;;;;;;;13.05;71.24023;95904.11;;;;
2022/06/12 03:13:15;;;;;;;5.25;4.05;;;;;;;13.05;71.24023;95904.11;;;;
2022/06/12 03:14:17;;;;;;;5.25;4.05;;;;;;;13.05;71.24023;95904.11;;;;
2022/06/12 03:15:20;;;;;;;5.25;4.05;;;;;;;13.05;71.24023;95904.11;;;;
2022/06/12 03:16:41;;;;;;;5.25;4.05;;;;;;;13.05;71.24023;95904.11;;;;
2022/06/12 03:17:45;;;;;;;5.25;4.05;;;;;;;13.05;71.24023;95904.11;;;;
2022/06/12 03:18:46;;;;;;;5.25;4.05;;;;;;;13.05;71.24023;95904.11;;;;
2022/06/12 03:19:54;;;;;;;5.25;4.05;;;;;;;13.05;71.24023;95904.11;;;;
2022/06/12 03:20:56;;;;;;;5.25;4.05;;;;;;;13.05;71.24023;95904.11;;;;
2022/06/12 03:22:07;;;;;;;5.25;4.05;;;;;;;13.05;71.24023;95904.11;;;;
2022/06/12 03:23:15;;;;;;;5.25;4.05;;;;;;;13.05;71.24023;95904.11;;;;
2022/06/12 03:24:31;;;;;;;5.25;4.05;;;;;;;13.05;71.24023;95904.11;;;;
2022/06/12 03:25:44;;;;;;;5.25;4.05;;;;;;;13.05;71.24023;95904.11;;;;
2022/06/12 03:26:51;;;;;;;5.25;4.05;;;;;;;13.05;71.24023;95904.11;;;;
2022/06/12 03:28:04;;;;;;;5.25;4.05;;;;;;;13.05;71.24023;95904.11;;;;
2022/06/12 03:29:12;;;;;;;4.400001;4;;;;;;;12.92;71.72656;95922.83;;;;
2022/06/12 03:30:27;;;;;;;4.400001;4;;;;;;;12.92;71.72656;95922.83;;;;
2022/06/12 03:31:33;;;;;;;4.400001;4;;;;;;;12.92;71.72656;95922.83;;;;
2022/06/12 03:32:45;;;;;;;4.400001;4;;;;;;;12.92;71.72656;95922.83;;;;
2022/06/12 03:33:55;;;;;;;4.400001;4;;;;;;;12.92;71.72656;95922.83;;;;
2022/06/12 03:35:07;;;;;;;4.400001;4;;;;;;;12.92;71.72656;95922.83;;;;
2022/06/12 03:36:15;;;;;;;4.400001;4;;;;;;;12.92;71.72656;95922.83;;;;
2022/06/12 03:37:21;;;;;;;4.400001;4;;;;;;;12.92;71.72656;95922.83;;;;
2022/06/12 03:38:31;;;;;;;4.400001;4;;;;;;;12.92;71.72656;95922.83;;;;
2022/06/12 03:39:42;;;;;;;4.55;4.15;;;;;;;12.96;71.86328;95934.55;;;;
2022/06/12 03:40:48;;;;;;;4.55;4.15;;;;;;;12.96;71.86328;95934.55;;;;
2022/06/12 03:41:56;;;;;;;4.55;4.15;;;;;;;12.96;71.86328;95934.55;;;;
2022/06/12 03:43:04;;;;;;;4.55;4.15;;;;;;;12.96;71.86328;95934.55;;;;
2022/06/12 03:44:12;;;;;;;4.55;4.15;;;;;;;12.96;71.86328;95934.55;;;;
2022/06/12 03:45:22;;;;;;;4.55;4.15;;;;;;;12.96;71.86328;95934.55;;;;
2022/06/12 03:46:25;;;;;;;4.55;4.15;;;;;;;12.96;71.86328;95934.55;;;;
2022/06/12 03:47:34;;;;;;;4.55;4.15;;;;;;;12.96;71.86328;95934.55;;;;
2022/06/12 03:48:42;;;;;;;4.55;4.15;;;;;;;12.96;71.86328;95934.55;;;;
2022/06/12 03:49:52;;;;;;;4.55;4.15;;;;;;;12.96;71.86328;95934.55;;;;
2022/06/12 03:50:59;;;;;;;4.2;3.8;;;;;;;12.97;72.0293;95932.19;;;;
2022/06/12 03:52:12;;;;;;;4.2;3.8;;;;;;;12.97;72.0293;95932.19;;;;
2022/06/12 03:53:19;;;;;;;4.2;3.8;;;;;;;12.97;72.0293;95932.19;;;;
2022/06/12 03:54:26;;;;;;;4.2;3.8;;;;;;;12.97;72.0293;95932.19;;;;
2022/06/12 04:00:50;;;;;;;4.2;3.8;;;;;;;12.97;72.0293;95932.19;;;;
2022/06/12 04:01:52;;;;;;;4.5;4.1;;;;;;;13.09;72.13477;95935.94;;;;
2022/06/12 04:02:53;;;;;;;4.5;4.1;;;;;;;13.09;72.13477;95935.94;;;;
2022/06/12 04:03:57;;;;;;;4.5;4.1;;;;;;;13.09;72.13477;95935.94;;;;
2022/06/12 04:04:59;;;;;;;4.5;4.1;;;;;;;13.09;72.13477;95935.94;;;;
2022/06/12 04:06:01;;;;;;;4.5;4.1;;;;;;;13.09;72.13477;95935.94;;;;
2022/06/12 04:07:05;;;;;;;4.5;4.1;;;;;;;13.09;72.13477;95935.94;;;;
2022/06/12 04:08:09;;;;;;;4.5;4.1;;;;;;;13.09;72.13477;95935.94;;;;
2022/06/12 04:09:16;;;;;;;4.5;4.1;;;;;;;13.09;72.13477;95935.94;;;;
2022/06/12 04:10:20;;;;;;;4.5;4.1;;;;;;;13.09;72.13477;95935.94;;;;
2022/06/12 04:11:24;;;;;;;4.5;4.1;;;;;;;13.09;72.13477;95935.94;;;;
2022/06/12 04:12:28;;;;;;;4.55;4.15;;;;;;;13.19;72.23828;95940.7;;;;
2022/06/12 04:13:32;;;;;;;4.55;4.15;;;;;;;13.19;72.23828;95940.7;;;;
2022/06/12 04:14:35;;;;;;;4.55;4.15;;;;;;;13.19;72.23828;95940.7;;;;
2022/06/12 04:15:40;;;;;;;4.55;4.15;;;;;;;13.19;72.23828;95940.7;;;;
2022/06/12 04:16:45;;;;;;;4.55;4.15;;;;;;;13.19;72.23828;95940.7;;;;
2022/06/12 04:17:49;;;;;;;4.55;4.15;;;;;;;13.19;72.23828;95940.7;;;;
2022/06/12 04:18:50;;;;;;;4.55;4.15;;;;;;;13.19;72.23828;95940.7;;;;
2022/06/12 04:19:59;;;;;;;4.55;4.15;;;;;;;13.19;72.23828;95940.7;;;;
2022/06/12 04:21:00;;;;;;;4.55;4.15;;;;;;;13.19;72.23828;95940.7;;;;
2022/06/12 04:22:04;;;;;;;4.55;4.15;;;;;;;13.19;72.23828;95940.7;;;;
2022/06/12 04:23:11;;;;;;;4.3;3.9;;;;;;;13.44;72.2041;95944.65;;;;
2022/06/12 04:24:20;;;;;;;4.3;3.9;;;;;;;13.44;72.2041;95944.65;;;;
2022/06/12 04:25:26;;;;;;;4.3;3.9;;;;;;;13.44;72.2041;95944.65;;;;
2022/06/12 04:26:38;;;;;;;4.3;3.9;;;;;;;13.44;72.2041;95944.65;;;;
2022/06/12 04:27:44;;;;;;;4.3;3.9;;;;;;;13.44;72.2041;95944.65;;;;
2022/06/12 04:28:46;;;;;;;4.3;3.9;;;;;;;13.44;72.2041;95944.65;;;;
2022/06/12 04:29:55;;;;;;;4.3;3.9;;;;;;;13.44;72.2041;95944.65;;;;
2022/06/12 04:30:59;;;;;;;4.3;3.9;;;;;;;13.44;72.2041;95944.65;;;;
2022/06/12 04:32:02;;;;;;;4.3;3.9;;;;;;;13.44;72.2041;95944.65;;;;
2022/06/12 04:33:06;;;;;;;4.649999;3.8;;;;;;;13.63;72.02832;95941.05;;;;
2022/06/12 04:34:22;;;;;;;4.649999;3.8;;;;;;;13.63;72.02832;95941.05;;;;
2022/06/12 04:35:25;;;;;;;4.649999;3.8;;;;;;;13.63;72.02832;95941.05;;;;
2022/06/12 04:36:26;;;;;;;4.649999;3.8;;;;;;;13.63;72.02832;95941.05;;;;
2022/06/12 04:37:27;;;;;;;4.649999;3.8;;;;;;;13.63;72.02832;95941.05;;;;
2022/06/12 04:38:30;;;;;;;4.649999;3.8;;;;;;;13.63;72.02832;95941.05;;;;
2022/06/12 04:39:33;;;;;;;4.649999;3.8;;;;;;;13.63;72.02832;95941.05;;;;
2022/06/12 04:40:33;;;;;;;4.649999;3.8;;;;;;;13.63;72.02832;95941.05;;;;
2022/06/12 04:41:35;;;;;;;4.649999;3.8;;;;;;;13.63;72.02832;95941.05;;;;
2022/06/12 04:42:36;;;;;;;4.649999;3.8;;;;;;;13.63;72.02832;95941.05;;;;
2022/06/12 04:43:36;;;;;;;4.649999;3.8;;;;;;;13.63;72.02832;95941.05;;;;
2022/06/12 04:44:37;;;;;;;4.2;3.8;;;;;;;13.91;72.09473;95931.34;;;;
2022/06/12 04:45:38;;;;;;;4.2;3.8;;;;;;;13.91;72.09473;95931.34;;;;
2022/06/12 04:46:40;;;;;;;4.2;3.8;;;;;;;13.91;72.09473;95931.34;;;;
2022/06/12 04:47:43;;;;;;;4.2;3.8;;;;;;;13.91;72.09473;95931.34;;;;
2022/06/12 04:48:43;;;;;;;4.2;3.8;;;;;;;13.91;72.09473;95931.34;;;;
2022/06/12 04:49:47;;;;;;;4.2;3.8;;;;;;;13.91;72.09473;95931.34;;;;
2022/06/12 04:50:48;;;;;;;4.2;3.8;;;;;;;13.91;72.09473;95931.34;;;;
2022/06/12 04:51:48;;;;;;;4.2;3.8;;;;;;;13.91;72.09473;95931.34;;;;
2022/06/12 04:52:51;;;;;;;4.2;3.8;;;;;;;13.91;72.09473;95931.34;;;;
2022/06/12 04:53:52;;;;;;;4.2;3.8;;;;;;;13.91;72.09473;95931.34;;;;
2022/06/12 04:54:52;;;;;;;3.8;3.5;;;;;;;14.28;71.87402;95921.14;;;;
2022/06/12 04:55:53;;;;;;;3.8;3.5;;;;;;;14.28;71.87402;95921.14;;;;
2022/06/12 04:56:54;;;;;;;3.8;3.5;;;;;;;14.28;71.87402;95921.14;;;;
2022/06/12 04:57:55;;;;;;;3.8;3.5;;;;;;;14.28;71.87402;95921.14;;;;
2022/06/12 04:58:55;;;;;;;3.8;3.5;;;;;;;14.28;71.87402;95921.14;;;;
2022/06/12 04:59:56;;;;;;;3.8;3.5;;;;;;;14.28;71.87402;95921.14;;;;
2022/06/12 05:00:57;;;;;;;3.8;3.5;;;;;;;14.28;71.87402;95921.14;;;;
2022/06/12 05:01:57;;;;;;;3.8;3.5;;;;;;;14.28;71.87402;95921.14;;;;
2022/06/12 05:02:58;;;;;;;3.8;3.5;;;;;;;14.28;71.87402;95921.14;;;;
2022/06/12 05:03:58;;;;;;;3.8;3.5;;;;;;;14.28;71.87402;95921.14;;;;
2022/06/12 05:05:00;;;;;;;3.699999;3.3;;;;;;;14.76;71.59277;95915.03;;;;
2022/06/12 05:06:00;;;;;;;3.699999;3.3;;;;;;;14.76;71.59277;95915.03;;;;
2022/06/12 05:07:02;;;;;;;3.699999;3.3;;;;;;;14.76;71.59277;95915.03;;;;
2022/06/12 05:08:05;;;;;;;3.699999;3.3;;;;;;;14.76;71.59277;95915.03;;;;
2022/06/12 05:09:06;;;;;;;3.699999;3.3;;;;;;;14.76;71.59277;95915.03;;;;
2022/06/12 05:10:08;;;;;;;3.699999;3.3;;;;;;;14.76;71.59277;95915.03;;;;
2022/06/12 05:11:13;;;;;;;3.699999;3.3;;;;;;;14.76;71.59277;95915.03;;;;
2022/06/12 05:12:14;;;;;;;3.699999;3.3;;;;;;;14.76;71.59277;95915.03;;;;
2022/06/12 05:13:14;;;;;;;3.699999;3.3;;;;;;;14.76;71.59277;95915.03;;;;
2022/06/12 05:14:15;;;;;;;3.699999;3.3;;;;;;;14.76;71.59277;95915.03;;;;
2022/06/12 05:15:16;;;;;;;3.699999;3.3;;;;;;;14.76;71.59277;95915.03;;;;
2022/06/12 05:16:17;;;;;;;3.950001;3.5;;;;;;;15.21;71.1875;95914.15;;;;
2022/06/12 05:17:27;;;;;;;3.950001;3.5;;;;;;;15.21;71.1875;95914.15;;;;
2022/06/12 05:18:28;;;;;;;3.950001;3.5;;;;;;;15.21;71.1875;95914.15;;;;
2022/06/12 05:19:29;;;;;;;3.950001;3.5;;;;;;;15.21;71.1875;95914.15;;;;
2022/06/12 05:20:32;;;;;;;3.950001;3.5;;;;;;;15.21;71.1875;95914.15;;;;
2022/06/12 05:21:35;;;;;;;3.950001;3.5;;;;;;;15.21;71.1875;95914.15;;;;
2022/06/12 05:22:36;;;;;;;3.950001;3.5;;;;;;;15.21;71.1875;95914.15;;;;
2022/06/12 05:23:37;;;;;;;3.950001;3.5;;;;;;;15.21;71.1875;95914.15;;;;
2022/06/12 05:24:37;;;;;;;3.950001;3.5;;;;;;;15.21;71.1875;95914.15;;;;
2022/06/12 05:25:38;;;;;;;3.950001;3.5;;;;;;;15.21;71.1875;95914.15;;;;
2022/06/12 05:26:40;;;;;;;4.050001;3.4;;;;;;;15.71;70.82031;95907.15;;;;
2022/06/12 05:27:45;;;;;;;4.050001;3.4;;;;;;;15.71;70.82031;95907.15;;;;
2022/06/12 05:28:47;;;;;;;4.050001;3.4;;;;;;;15.71;70.82031;95907.15;;;;
2022/06/12 05:29:48;;;;;;;4.050001;3.4;;;;;;;15.71;70.82031;95907.15;;;;
2022/06/12 05:30:51;;;;;;;4.050001;3.4;;;;;;;15.71;70.82031;95907.15;;;;
2022/06/12 05:31:52;;;;;;;4.050001;3.4;;;;;;;15.71;70.82031;95907.15;;;;
2022/06/12 05:32:53;;;;;;;4.050001;3.4;;;;;;;15.71;70.82031;95907.15;;;;
2022/06/12 05:33:55;;;;;;;4.050001;3.4;;;;;;;15.71;70.82031;95907.15;;;;
2022/06/12 05:34:56;;;;;;;4.050001;3.4;;;;;;;15.71;70.82031;95907.15;;;;
2022/06/12 05:35:57;;;;;;;4.050001;3.4;;;;;;;15.71;70.82031;95907.15;;;;
2022/06/12 05:36:57;;;;;;;4.050001;3.4;;;;;;;15.71;70.82031;95907.15;;;;
2022/06/12 05:38:00;;;;;;;3.85;3.55;;;;;;;16.16;70.46875;95914.01;;;;
2022/06/12 05:39:01;;;;;;;3.85;3.55;;;;;;;16.16;70.46875;95914.01;;;;
2022/06/12 05:40:02;;;;;;;3.85;3.55;;;;;;;16.16;70.46875;95914.01;;;;
2022/06/12 05:41:03;;;;;;;3.85;3.55;;;;;;;16.16;70.46875;95914.01;;;;
2022/06/12 05:42:04;;;;;;;3.85;3.55;;;;;;;16.16;70.46875;95914.01;;;;
2022/06/12 05:43:05;;;;;;;3.85;3.55;;;;;;;16.16;70.46875;95914.01;;;;
2022/06/12 05:44:06;;;;;;;3.85;3.55;;;;;;;16.16;70.46875;95914.01;;;;
2022/06/12 05:45:07;;;;;;;3.85;3.55;;;;;;;16.16;70.46875;95914.01;;;;
2022/06/12 05:46:12;;;;;;;3.85;3.55;;;;;;;16.16;70.46875;95914.01;;;;
2022/06/12 05:47:15;;;;;;;3.85;3.55;;;;;;;16.16;70.46875;95914.01;;;;
2022/06/12 05:48:16;;;;;;;3.8;3.5;;;;;;;16.7;70.0293;95915.94;;;;
2022/06/12 05:49:18;;;;;;;3.8;3.5;;;;;;;16.7;70.0293;95915.94;;;;
2022/06/12 05:50:19;;;;;;;3.8;3.5;;;;;;;16.7;70.0293;95915.94;;;;
2022/06/12 05:51:23;;;;;;;3.8;3.5;;;;;;;16.7;70.0293;95915.94;;;;
2022/06/12 05:52:24;;;;;;;3.8;3.5;;;;;;;16.7;70.0293;95915.94;;;;
2022/06/12 05:53:24;;;;;;;3.8;3.5;;;;;;;16.7;70.0293;95915.94;;;;
2022/06/12 05:54:28;;;;;;;3.8;3.5;;;;;;;16.7;70.0293;95915.94;;;;
2022/06/12 05:55:28;;;;;;;3.8;3.5;;;;;;;16.7;70.0293;95915.94;;;;
2022/06/12 05:56:29;;;;;;;3.8;3.5;;;;;;;16.7;70.0293;95915.94;;;;
2022/06/12 05:57:30;;;;;;;3.8;3.5;;;;;;;16.7;70.0293;95915.94;;;;
2022/06/12 05:58:31;;;;;;;3.5;3.2;;;;;;;17.2;69.61719;95914.31;;;;
2022/06/12 05:59:32;;;;;;;3.5;3.2;;;;;;;17.2;69.61719;95914.31;;;;
2022/06/12 06:00:33;;;;;;;3.5;3.2;;;;;;;17.2;69.61719;95914.31;;;;
2022/06/12 06:01:34;;;;;;;3.5;3.2;;;;;;;17.2;69.61719;95914.31;;;;
2022/06/12 06:02:38;;;;;;;3.5;3.2;;;;;;;17.2;69.61719;95914.31;;;;
2022/06/12 06:03:39;;;;;;;3.5;3.2;;;;;;;17.2;69.61719;95914.31;;;;
2022/06/12 06:04:39;;;;;;;3.5;3.2;;;;;;;17.2;69.61719;95914.31;;;;
2022/06/12 06:05:40;;;;;;;3.5;3.2;;;;;;;17.2;69.61719;95914.31;;;;
2022/06/12 06:06:43;;;;;;;3.5;3.2;;;;;;;17.2;69.61719;95914.31;;;;
2022/06/12 06:07:46;;;;;;;3.5;3.2;;;;;;;17.2;69.61719;95914.31;;;;
2022/06/12 06:08:47;;;;;;;3.5;3.2;;;;;;;17.2;69.61719;95914.31;;;;
2022/06/12 06:09:48;;;;;;;3.3;3.1;;;;;;;17.8;69.00879;95911.99;;;;
2022/06/12 06:10:49;;;;;;;3.3;3.1;;;;;;;17.8;69.00879;95911.99;;;;
2022/06/12 06:11:49;;;;;;;3.3;3.1;;;;;;;17.8;69.00879;95911.99;;;;
2022/06/12 06:12:50;;;;;;;3.3;3.1;;;;;;;17.8;69.00879;95911.99;;;;
2022/06/12 06:13:51;;;;;;;3.3;3.1;;;;;;;17.8;69.00879;95911.99;;;;
2022/06/12 06:14:51;;;;;;;3.3;3.1;;;;;;;17.8;69.00879;95911.99;;;;
2022/06/12 06:15:52;;;;;;;3.3;3.1;;;;;;;17.8;69.00879;95911.99;;;;
2022/06/12 06:16:53;;;;;;;3.3;3.1;;;;;;;17.8;69.00879;95911.99;;;;
2022/06/12 06:17:53;;;;;;;3.3;3.1;;;;;;;17.8;69.00879;95911.99;;;;
2022/06/12 06:18:55;;;;;;;3.3;3.1;;;;;;;17.8;69.00879;95911.99;;;;
2022/06/12 06:19:56;;;;;;;3.25;2.95;;;;;;;18.41;68.43359;95912.91;;;;
2022/06/12 06:20:56;;;;;;;3.25;2.95;;;;;;;18.41;68.43359;95912.91;;;;